Time;durP1;ratioP1;P1;durP2;ratioP2;P2;SDS_P1;SDS_P2;PMS_P1;PMS_P2;Temp;Humidity;BMP_temperature;BMP_pressure;BME280_temperature;BME280_humidity;BME280_pressure;Samples;Min_cycle;Max_cycle;Signal;HPM_P1;HPM_P2
2021/01/03 00:01:29;;;;;;;45.22;30.00;;;;;;;1.17;77.48;97087.53;10221590;29;20059;-76
2021/01/03 00:06:53;;;;;;;44.13;28.20;;;;;;;1.16;77.96;97062.03;10206872;29;20060;-76
2021/01/03 00:12:13;;;;;;;42.60;27.60;;;;;;;1.23;78.02;97055.81;10206128;29;20060;-76
2021/01/03 00:17:33;;;;;;;41.67;28.40;;;;;;;1.30;77.99;97051.59;10206447;29;20494;-76
2021/01/03 00:22:53;;;;;;;43.25;26.80;;;;;;;1.34;77.98;97049.94;10206421;29;20067;-76
2021/01/03 00:28:13;;;;;;;44.78;28.88;;;;;;;1.40;77.43;97031.25;10206712;29;20576;-76
2021/01/03 00:33:33;;;;;;;42.50;27.80;;;;;;;1.48;77.45;97055.28;10193978;29;20079;-76
2021/01/03 00:38:53;;;;;;;47.58;29.25;;;;;;;1.48;77.48;97041.53;10205708;29;20134;-76
2021/01/03 00:44:14;;;;;;;42.17;26.98;;;;;;;1.48;77.88;97028.50;10206240;29;20138;-76
2021/01/03 00:49:34;;;;;;;42.35;27.35;;;;;;;1.46;77.44;97052.34;10220766;29;20063;-76
2021/01/03 00:54:53;;;;;;;47.03;29.55;;;;;;;1.41;77.91;97051.97;10205254;29;20561;-76
2021/01/03 01:00:26;;;;;;;45.35;29.08;;;;;;;1.41;77.88;97029.97;10205455;29;20070;-76
2021/01/03 01:05:46;;;;;;;45.92;29.35;;;;;;;1.37;78.52;97057.09;10219247;29;20064;-76
2021/01/03 01:11:06;;;;;;;48.92;30.70;;;;;;;1.21;77.99;97055.63;10205703;29;20502;-76
2021/01/03 01:16:26;;;;;;;43.88;29.27;;;;;;;1.20;78.68;97065.16;10205091;29;20064;-76
2021/01/03 01:21:46;;;;;;;43.45;29.17;;;;;;;1.15;79.32;97055.06;10219646;29;20450;-76
2021/01/03 01:27:05;;;;;;;43.63;29.33;;;;;;;1.20;78.69;97051.41;10203684;29;20066;-76
2021/01/03 01:32:26;;;;;;;43.40;27.13;;;;;;;1.22;78.87;97034.34;10205018;29;20063;-76
2021/01/03 01:37:46;;;;;;;41.22;26.77;;;;;;;1.26;78.67;97024.47;10203733;29;20502;-76
2021/01/03 01:43:13;;;;;;;42.65;28.23;;;;;;;1.34;79.43;97005.22;10203497;29;20103;-76
2021/01/03 01:48:39;;;;;;;43.65;28.33;;;;;;;1.35;79.78;96993.69;10176955;29;20518;-76
2021/01/03 01:54:11;;;;;;;38.90;26.13;;;;;;;1.38;79.48;96998.06;10191282;29;20454;-76
2021/01/03 02:00:14;;;;;;;39.40;26.02;;;;;;;1.44;79.21;96987.59;10203918;29;20060;-76
2021/01/03 02:05:46;;;;;;;38.70;24.27;;;;;;;1.59;79.57;96975.84;10197631;29;20107;-76
2021/01/03 02:11:09;;;;;;;36.42;22.65;;;;;;;1.64;79.45;96979.69;10202651;29;20059;-76
2021/01/03 02:16:36;;;;;;;29.98;20.70;;;;;;;1.75;79.34;96981.34;10176075;29;20071;-76
2021/01/03 02:22:15;;;;;;;33.38;22.10;;;;;;;1.84;78.96;96983.53;10217196;29;20545;-76
2021/01/03 02:28:00;;;;;;;32.53;20.45;;;;;;;1.93;79.31;96980.94;10204084;29;20146;-76
2021/01/03 02:33:41;;;;;;;26.48;18.98;;;;;;;2.00;78.53;96977.41;10204706;29;20115;-76
2021/01/03 02:39:12;;;;;;;25.08;16.08;;;;;;;2.06;78.56;96974.47;10224233;29;20063;-76
2021/01/03 02:44:31;;;;;;;26.85;16.92;;;;;;;2.10;78.93;96971.31;10211396;29;20059;-76
2021/01/03 02:49:51;;;;;;;24.73;15.98;;;;;;;2.17;78.99;96967.81;10209770;29;20099;-77
2021/01/03 02:55:13;;;;;;;24.60;15.43;;;;;;;2.18;79.25;96969.28;10210804;29;20070;-76
2021/01/03 03:00:37;;;;;;;25.13;16.23;;;;;;;2.17;78.78;96962.31;10224035;29;20071;-76
2021/01/03 03:05:57;;;;;;;23.05;16.10;;;;;;;2.16;79.67;96964.31;10209557;29;20187;-76
2021/01/03 03:11:17;;;;;;;21.17;13.80;;;;;;;2.14;79.30;96963.44;10195897;29;20059;-76
2021/01/03 03:16:37;;;;;;;23.90;16.17;;;;;;;2.16;79.38;96960.84;10209210;29;20387;-76
2021/01/03 03:21:56;;;;;;;20.63;15.20;;;;;;;2.18;79.36;96961.00;10224221;29;20379;-76
2021/01/03 03:27:16;;;;;;;24.50;15.88;;;;;;;2.22;79.57;96948.34;10235398;29;20063;-76
2021/01/03 03:32:36;;;;;;;24.00;15.68;;;;;;;2.26;79.76;96948.69;10208669;29;20161;-76
2021/01/03 03:37:57;;;;;;;21.60;14.63;;;;;;;2.27;79.74;96939.13;10195296;29;20074;-76
2021/01/03 03:43:17;;;;;;;20.80;14.93;;;;;;;2.26;79.22;96932.16;10208086;29;20063;-76
2021/01/03 03:48:37;;;;;;;22.00;14.80;;;;;;;2.29;80.24;96935.81;10195373;29;20195;-76
2021/01/03 03:53:56;;;;;;;23.13;14.07;;;;;;;2.25;79.33;96927.22;10222147;29;20063;-76
2021/01/03 03:59:16;;;;;;;21.63;14.65;;;;;;;2.25;79.46;96929.97;10221518;29;20094;-76
2021/01/03 04:04:37;;;;;;;20.40;14.38;;;;;;;2.24;79.90;96929.22;10206870;29;20063;-76
2021/01/03 04:09:56;;;;;;;20.50;14.25;;;;;;;2.23;79.94;96916.75;10206718;29;20402;-76
2021/01/03 04:15:18;;;;;;;22.35;14.38;;;;;;;2.30;80.40;96918.00;10222072;29;20059;-76
2021/01/03 04:20:37;;;;;;;18.42;13.13;;;;;;;2.32;79.86;96912.69;10206652;29;20453;-76
2021/01/03 04:25:57;;;;;;;21.60;13.20;;;;;;;2.35;79.55;96906.03;10207235;29;20063;-76
2021/01/03 04:31:18;;;;;;;19.30;13.07;;;;;;;2.44;80.00;96924.00;10220538;29;20064;-76
2021/01/03 04:36:38;;;;;;;18.55;12.90;;;;;;;2.51;80.34;96920.44;10206045;29;20071;-76
2021/01/03 04:42:30;;;;;;;18.90;12.80;;;;;;;2.52;80.80;96924.69;10206691;29;20052;-76
2021/01/03 04:47:58;;;;;;;18.30;12.80;;;;;;;2.46;80.96;96935.91;10217199;29;20410;-76
2021/01/03 04:53:36;;;;;;;19.05;12.80;;;;;;;2.48;81.12;96935.34;10193337;29;20553;-76
2021/01/03 04:59:08;;;;;;;17.65;12.10;;;;;;;2.37;81.90;96927.50;10204192;29;20059;-76
2021/01/03 05:04:45;;;;;;;16.30;11.50;;;;;;;2.36;81.96;96932.28;10205987;29;20094;-76
2021/01/03 05:10:23;;;;;;;19.23;12.63;;;;;;;2.35;81.83;96924.59;10204679;29;20066;-76
2021/01/03 05:15:43;;;;;;;18.23;12.05;;;;;;;2.40;80.97;96929.88;10218773;29;20067;-76
2021/01/03 05:21:06;;;;;;;17.77;11.45;;;;;;;2.39;81.16;96927.69;10218485;29;20536;-76
2021/01/03 05:26:32;;;;;;;20.38;12.80;;;;;;;2.47;80.84;96926.34;10218934;29;20083;-76
2021/01/03 05:32:03;;;;;;;16.02;11.98;;;;;;;2.53;80.93;96915.84;10190713;29;20063;-75
2021/01/03 05:37:27;;;;;;;15.80;11.15;;;;;;;2.53;81.04;96921.38;10191659;29;20068;-76
2021/01/03 05:42:46;;;;;;;15.80;11.38;;;;;;;2.53;81.39;96929.63;10190244;29;20142;-76
2021/01/03 05:48:06;;;;;;;16.25;11.90;;;;;;;2.59;80.85;96924.63;10203100;29;20070;-75
2021/01/03 05:53:28;;;;;;;14.57;10.60;;;;;;;2.62;81.25;96925.53;10191084;29;20060;-76
2021/01/03 05:58:52;;;;;;;16.92;11.73;;;;;;;2.63;81.96;96934.53;10217136;29;20063;-76
2021/01/03 06:04:20;;;;;;;15.82;11.55;;;;;;;2.71;81.46;96929.72;10204006;29;20064;-76
2021/01/03 06:09:40;;;;;;;15.88;10.93;;;;;;;2.69;81.19;96935.03;10203552;29;20064;-76
2021/01/03 06:15:04;;;;;;;15.18;10.10;;;;;;;2.72;81.01;96940.16;10202964;29;20153;-76
2021/01/03 06:20:27;;;;;;;15.35;10.85;;;;;;;2.80;81.06;96943.59;10189002;29;20410;-76
2021/01/03 06:26:14;;;;;;;14.47;10.43;;;;;;;2.85;81.42;96944.66;10202239;29;20395;-76
2021/01/03 06:31:48;;;;;;;15.02;10.55;;;;;;;2.85;81.24;96952.94;10204416;29;20087;-76
2021/01/03 06:37:40;;;;;;;15.25;10.40;;;;;;;2.86;81.50;96946.84;10202065;29;20142;-76
2021/01/03 06:43:48;;;;;;;14.52;10.40;;;;;;;2.84;81.70;96943.94;10187915;29;20060;-76
2021/01/03 06:49:42;;;;;;;15.80;10.95;;;;;;;2.80;81.86;96945.63;10204938;29;20063;-77
2021/01/03 06:55:01;;;;;;;14.40;9.82;;;;;;;2.81;81.71;96947.81;10178630;29;20068;-76
2021/01/03 07:00:33;;;;;;;15.30;10.50;;;;;;;2.73;82.49;96944.38;10176737;29;20115;-76
2021/01/03 07:06:01;;;;;;;17.83;10.60;;;;;;;2.59;83.40;96943.91;10179606;29;20077;-76
2021/01/03 07:11:51;;;;;;;13.55;9.95;;;;;;;2.58;83.34;96949.97;10179109;29;20060;-76
2021/01/03 07:17:15;;;;;;;14.30;9.95;;;;;;;2.45;83.85;96953.00;10195731;29;20146;-76
2021/01/03 07:22:48;;;;;;;13.30;9.95;;;;;;;2.40;84.51;96951.19;10181660;29;20064;-78
2021/01/03 07:28:17;;;;;;;14.18;10.02;;;;;;;2.36;84.81;96961.84;10170289;29;20111;-78
2021/01/03 07:33:58;;;;;;;15.90;10.20;;;;;;;2.41;84.89;96958.88;10157133;29;20087;-77
2021/01/03 07:39:25;;;;;;;13.52;9.80;;;;;;;2.52;85.16;96969.50;10167336;29;20151;-77
2021/01/03 07:44:45;;;;;;;14.70;9.57;;;;;;;2.51;84.91;96973.53;10168986;29;20095;-77
2021/01/03 07:50:17;;;;;;;13.60;9.75;;;;;;;2.54;84.62;96972.41;10168617;29;20466;-77
2021/01/03 07:55:37;;;;;;;13.82;9.23;;;;;;;2.56;84.95;96972.59;10194974;29;20067;-77
2021/01/03 08:00:59;;;;;;;14.68;9.02;;;;;;;2.62;84.33;96979.91;10181266;29;20506;-77
2021/01/03 08:06:19;;;;;;;11.98;8.80;;;;;;;2.69;84.19;96970.84;10181934;29;20060;-77
2021/01/03 08:11:40;;;;;;;12.55;9.07;;;;;;;2.77;83.89;96966.75;10167829;29;20139;-77
2021/01/03 08:17:00;;;;;;;11.60;8.82;;;;;;;2.93;83.92;96977.69;10168237;29;20549;-78
2021/01/03 08:22:27;;;;;;;12.48;9.45;;;;;;;3.02;83.71;96979.84;10141760;29;20056;-78
2021/01/03 08:27:58;;;;;;;13.20;9.57;;;;;;;3.14;83.43;96984.34;10181611;29;20142;-77
2021/01/03 08:33:21;;;;;;;12.25;8.85;;;;;;;3.16;83.09;96992.78;10167474;29;20115;-77
2021/01/03 08:38:41;;;;;;;13.73;9.32;;;;;;;3.20;82.98;96989.63;10202740;29;20138;-77
2021/01/03 08:44:04;;;;;;;14.32;8.57;;;;;;;3.27;83.43;97004.66;10205791;29;20083;-77
2021/01/03 08:49:24;;;;;;;10.52;8.20;;;;;;;3.26;82.78;97005.94;10206146;29;20059;-77
2021/01/03 08:54:48;;;;;;;11.20;8.30;;;;;;;3.33;83.15;97003.13;10205372;29;20062;-75
2021/01/03 09:00:13;;;;;;;;;;;;;;;3.39;82.93;97011.19;10219953;29;20513;-75
2021/01/03 09:05:35;;;;;;;10.52;7.97;;;;;;;3.43;82.98;97017.03;10220163;29;19998;-75
2021/01/03 09:11:19;;;;;;;14.05;9.23;;;;;;;3.47;82.77;97017.34;10204764;29;20095;-75
2021/01/03 09:16:57;;;;;;;13.00;9.80;;;;;;;3.60;83.30;97024.63;10211492;29;20060;-75
2021/01/03 09:22:55;;;;;;;14.90;10.20;;;;;;;3.69;82.72;97024.00;10219444;29;20114;-75
2021/01/03 09:28:42;;;;;;;12.80;10.32;;;;;;;3.79;82.87;97021.34;10207696;29;20067;-75
2021/01/03 09:34:13;;;;;;;14.57;10.48;;;;;;;3.78;83.00;97022.63;10218439;29;20506;-75
2021/01/03 09:40:12;;;;;;;15.82;10.77;;;;;;;3.83;82.63;97025.16;10189450;29;20072;-76
2021/01/03 09:46:10;;;;;;;13.32;10.15;;;;;;;3.90;82.31;97032.63;10163443;29;20529;-78
2021/01/03 09:51:34;;;;;;;15.43;10.32;;;;;;;3.97;82.94;97026.31;10178106;29;20090;-78
2021/01/03 09:56:54;;;;;;;16.23;12.07;;;;;;;4.04;82.40;97024.75;10177171;29;20498;-78
2021/01/03 10:02:18;;;;;;;15.90;12.50;;;;;;;4.11;82.50;97021.19;10177699;29;20427;-78
2021/01/03 10:07:37;;;;;;;11.85;9.45;;;;;;;4.18;82.45;97020.38;10177354;29;20166;-77
2021/01/03 10:13:07;;;;;;;13.63;10.25;;;;;;;4.19;82.79;97021.09;10177886;29;20067;-77
2021/01/03 10:18:38;;;;;;;13.80;10.23;;;;;;;4.26;82.68;97020.31;10176757;29;20070;-77
2021/01/03 10:24:23;;;;;;;12.15;9.13;;;;;;;4.26;82.36;97026.56;10176657;29;20092;-77
2021/01/03 10:29:43;;;;;;;15.05;10.50;;;;;;;4.24;82.57;97020.84;10177824;29;20107;-78
2021/01/03 10:35:05;;;;;;;13.88;10.88;;;;;;;4.24;82.17;97023.59;10177800;29;20123;-79
2021/01/03 10:40:25;;;;;;;13.82;10.57;;;;;;;4.21;82.67;97016.47;10204226;29;20457;-77
2021/01/03 10:45:45;;;;;;;14.95;11.57;;;;;;;4.29;82.41;97005.34;10218811;29;20073;-77
2021/01/03 10:51:05;;;;;;;14.88;11.32;;;;;;;4.35;82.57;97005.09;10203428;29;20497;-77
2021/01/03 10:56:25;;;;;;;16.73;13.18;;;;;;;4.42;82.59;97013.28;10220347;29;20131;-79
2021/01/03 11:01:45;;;;;;;17.45;13.05;;;;;;;4.47;82.61;97008.81;10222828;29;20067;-76
2021/01/03 11:07:06;;;;;;;16.67;12.68;;;;;;;4.50;82.23;97010.44;10208308;29;20067;-77
2021/01/03 11:12:26;;;;;;;15.15;12.43;;;;;;;4.47;82.53;97014.34;10208333;29;20063;-77
2021/01/03 11:17:45;;;;;;;16.77;12.85;;;;;;;4.45;82.15;97003.13;10221911;29;20070;-78
2021/01/03 11:23:05;;;;;;;16.58;13.13;;;;;;;4.41;82.29;97008.31;10222354;29;20059;-76
2021/01/03 11:28:25;;;;;;;16.80;12.25;;;;;;;4.42;82.27;97007.03;10209852;29;20071;-78
2021/01/03 11:33:45;;;;;;;18.08;13.88;;;;;;;4.40;82.27;97006.88;10207675;29;20075;-77
2021/01/03 11:39:07;;;;;;;18.15;13.50;;;;;;;4.38;82.54;97006.72;10221226;29;20068;-78
2021/01/03 11:44:27;;;;;;;16.67;12.98;;;;;;;4.36;82.75;97001.75;10207008;29;20552;-78
2021/01/03 11:49:48;;;;;;;16.67;12.27;;;;;;;4.39;82.14;97003.38;10194488;29;20090;-78
2021/01/03 11:55:10;;;;;;;18.85;13.80;;;;;;;4.41;82.21;97002.81;10194321;29;20055;-76
2021/01/03 12:00:30;;;;;;;17.77;13.63;;;;;;;4.50;82.46;97002.13;10213919;29;20138;-80
2021/01/03 12:05:50;;;;;;;19.00;15.20;;;;;;;4.59;81.93;97007.72;10218435;29;20111;-82
2021/01/03 12:11:15;;;;;;;17.67;13.07;;;;;;;4.64;82.10;97013.59;10234612;29;20060;-79
2021/01/03 12:16:35;;;;;;;19.30;15.52;;;;;;;4.66;81.62;97008.94;10219915;29;20103;-78
2021/01/03 12:22:00;;;;;;;20.35;14.85;;;;;;;4.69;81.73;97016.09;10221779;29;20409;-80
2021/01/03 12:27:20;;;;;;;;;;;;;;;4.64;81.74;97014.31;10205803;29;20063;-76
2021/01/03 12:32:40;;;;;;;20.85;15.43;;;;;;;4.59;81.80;97018.06;10205101;29;19939;-77
2021/01/03 12:38:00;;;;;;;18.73;14.63;;;;;;;4.50;81.72;97010.44;10219108;29;20060;-78
2021/01/03 12:43:19;;;;;;;20.08;15.82;;;;;;;4.52;81.77;97014.06;10191814;29;20088;-76
2021/01/03 12:54:37;;;;;;;17.48;14.18;;;;;;;4.61;81.50;97009.91;10067065;29;20117;-77
2021/01/03 12:59:57;;;;;;;21.77;14.13;;;;;;;4.58;81.86;97022.13;10036309;29;20069;-77
2021/01/03 13:05:18;;;;;;;20.38;15.60;;;;;;;4.59;81.87;97018.06;10048721;29;20062;-78
2021/01/03 13:10:38;;;;;;;17.67;14.45;;;;;;;4.56;81.51;97027.50;10063498;29;20127;-77
2021/01/03 13:15:58;;;;;;;20.15;15.68;;;;;;;4.53;81.51;97028.63;10048314;29;20076;-76
2021/01/03 13:21:17;;;;;;;19.45;14.98;;;;;;;4.47;81.73;97025.41;10050711;29;20497;-78
2021/01/03 13:26:37;;;;;;;18.67;14.98;;;;;;;4.43;81.38;97030.59;10048072;29;20053;-76
2021/01/03 13:32:01;;;;;;;18.48;14.18;;;;;;;4.36;81.72;97034.91;10048130;29;20121;-77
2021/01/03 13:37:20;;;;;;;18.88;15.07;;;;;;;4.30;81.94;97054.50;10047628;29;20069;-78
2021/01/03 13:42:40;;;;;;;20.17;14.95;;;;;;;4.24;81.74;97056.75;10061422;29;20121;-77
2021/01/03 13:48:03;;;;;;;17.95;14.63;;;;;;;4.23;81.35;97054.56;10061332;29;20144;-78
2021/01/03 13:53:22;;;;;;;19.98;15.90;;;;;;;4.16;81.74;97058.91;10061537;29;20074;-77
2021/01/03 13:58:42;;;;;;;19.33;15.40;;;;;;;4.10;81.74;97066.69;10060802;29;20073;-78
2021/01/03 14:04:07;;;;;;;22.63;16.27;;;;;;;4.14;81.55;97060.75;10060636;29;20519;-78
2021/01/03 14:09:27;;;;;;;21.02;16.33;;;;;;;4.14;82.06;97069.03;10047382;29;20062;-79
2021/01/03 14:14:47;;;;;;;20.98;16.80;;;;;;;4.11;82.29;97059.13;10061224;29;20065;-77
2021/01/03 14:20:09;;;;;;;23.20;17.30;;;;;;;4.11;82.05;97062.63;10060295;29;20092;-78
2021/01/03 14:25:30;;;;;;;20.80;16.38;;;;;;;4.14;81.91;97064.22;10033513;29;20061;-77
2021/01/03 14:30:49;;;;;;;23.27;17.95;;;;;;;4.13;81.86;97067.56;10058252;29;20504;-78
2021/01/03 14:36:09;;;;;;;23.38;17.33;;;;;;;4.12;81.83;97066.09;10059975;29;20073;-78
2021/01/03 14:41:29;;;;;;;21.67;16.85;;;;;;;4.13;81.71;97070.34;10059837;29;20523;-78
2021/01/03 14:46:49;;;;;;;24.55;18.45;;;;;;;4.13;82.03;97068.31;10051303;29;20516;-77
2021/01/03 14:52:33;;;;;;;22.58;17.90;;;;;;;4.11;81.55;97076.44;10024802;29;20070;-78
2021/01/03 14:57:53;;;;;;;23.40;17.85;;;;;;;4.07;81.68;97067.81;10034869;29;20061;-78
2021/01/03 15:03:42;;;;;;;23.08;18.58;;;;;;;4.07;81.45;97084.41;10022094;29;20065;-79
2021/01/03 15:09:06;;;;;;;26.95;17.95;;;;;;;4.04;81.69;97080.00;10021231;29;20176;-79
2021/01/03 15:14:26;;;;;;;23.75;17.73;;;;;;;4.02;81.86;97079.81;10022635;29;20114;-79
2021/01/03 15:20:06;;;;;;;22.50;17.20;;;;;;;4.01;81.73;97081.13;10009967;29;20088;-78
2021/01/03 15:25:40;;;;;;;24.08;18.08;;;;;;;3.99;81.86;97083.72;10022734;29;20149;-79
2021/01/03 15:31:02;;;;;;;22.08;17.08;;;;;;;3.99;81.74;97098.28;10011544;29;20433;-79
2021/01/03 15:36:25;;;;;;;21.95;17.25;;;;;;;3.97;81.45;97102.91;10060393;29;20065;-79
2021/01/03 15:41:57;;;;;;;24.30;17.58;;;;;;;3.96;81.88;97093.16;10034466;29;20524;-79
2021/01/03 15:47:25;;;;;;;22.35;17.25;;;;;;;3.87;81.91;97107.59;10053240;29;20140;-79
2021/01/03 15:52:46;;;;;;;23.75;18.13;;;;;;;3.89;81.77;97108.47;10067051;29;20159;-78
2021/01/03 15:58:06;;;;;;;23.80;17.95;;;;;;;3.86;81.93;97119.91;10039439;29;20453;-78
2021/01/03 16:03:26;;;;;;;23.17;17.25;;;;;;;3.88;82.13;97123.59;10052943;29;20144;-78
2021/01/03 16:08:47;;;;;;;23.85;19.05;;;;;;;3.89;81.76;97127.09;10067061;29;20523;-78
2021/01/03 16:14:07;;;;;;;27.75;18.60;;;;;;;3.93;81.67;97132.94;10052329;29;20072;-79
2021/01/03 16:19:44;;;;;;;24.33;18.00;;;;;;;3.97;81.77;97128.47;10035706;29;20141;-77
2021/01/03 16:25:22;;;;;;;23.38;17.42;;;;;;;3.98;81.73;97129.22;10064113;29;20066;-76
2021/01/03 16:31:14;;;;;;;27.20;20.00;;;;;;;3.99;82.11;97138.97;10050161;29;20068;-77
2021/01/03 16:37:04;;;;;;;25.17;18.38;;;;;;;4.00;81.88;97140.41;10049866;29;20057;-76
2021/01/03 16:42:51;;;;;;;23.20;17.88;;;;;;;4.01;82.05;97141.88;10039866;29;20511;-76
2021/01/03 16:48:40;;;;;;;26.98;18.70;;;;;;;4.01;82.27;97137.09;10063462;29;20069;-75
2021/01/03 16:54:09;;;;;;;21.80;16.75;;;;;;;3.98;82.19;97141.00;10062798;29;20569;-75
2021/01/03 17:00:09;;;;;;;23.15;17.30;;;;;;;3.97;82.32;97139.53;10062769;29;20532;-76
2021/01/03 17:05:29;;;;;;;22.23;16.65;;;;;;;3.97;81.89;97150.56;10062580;29;20074;-75
2021/01/03 17:10:54;;;;;;;21.27;16.40;;;;;;;3.97;82.63;97144.31;10048422;29;20156;-77
2021/01/03 17:16:29;;;;;;;23.20;16.80;;;;;;;3.98;81.73;97154.06;10048604;29;20066;-77
2021/01/03 17:22:13;;;;;;;22.23;16.35;;;;;;;4.03;82.05;97161.38;10037178;29;20065;-76
2021/01/03 17:28:03;;;;;;;20.15;15.70;;;;;;;4.04;81.64;97160.09;10047858;29;20066;-75
2021/01/03 17:33:34;;;;;;;21.73;15.60;;;;;;;4.07;81.61;97169.28;10061629;29;20079;-77
2021/01/03 17:38:57;;;;;;;20.55;16.50;;;;;;;4.03;82.23;97169.66;10035750;29;20069;-77
2021/01/03 17:44:23;;;;;;;22.35;16.55;;;;;;;4.06;81.95;97168.56;10035445;29;20057;-77
2021/01/03 17:50:19;;;;;;;22.50;16.20;;;;;;;4.02;81.88;97168.19;10062757;29;20145;-75
2021/01/03 17:55:41;;;;;;;22.48;16.63;;;;;;;4.03;81.76;97180.72;10068484;29;20155;-79
2021/01/03 18:01:02;;;;;;;22.15;17.00;;;;;;;4.10;81.53;97179.19;10099573;29;20539;-77
2021/01/03 18:06:22;;;;;;;22.35;16.40;;;;;;;4.09;81.65;97186.75;10099123;29;20061;-78
2021/01/03 18:11:42;;;;;;;20.48;15.68;;;;;;;4.06;81.58;97182.38;10098104;29;20508;-78
2021/01/03 18:17:02;;;;;;;22.10;16.42;;;;;;;4.09;81.93;97188.78;10107305;29;20063;-78
2021/01/03 18:22:25;;;;;;;25.58;17.52;;;;;;;4.02;82.12;97198.59;10170738;23;20063;-81
2021/01/03 18:27:45;;;;;;;22.50;16.20;;;;;;;4.02;81.85;97193.06;10164010;29;20060;-82
2021/01/03 18:33:05;;;;;;;22.30;16.88;;;;;;;4.05;82.04;97191.19;10177469;29;20059;-79
2021/01/03 18:38:25;;;;;;;26.05;18.83;;;;;;;4.08;81.60;97206.66;10186048;29;20502;-80
2021/01/03 18:44:16;;;;;;;24.88;18.33;;;;;;;4.10;82.17;97201.28;10670239;23;20060;-77
2021/01/03 18:49:37;;;;;;;23.77;17.30;;;;;;;4.14;82.03;97194.06;10149046;29;20139;-77
2021/01/03 18:54:56;;;;;;;22.40;17.20;;;;;;;4.14;81.93;97194.06;10162172;29;20056;-76
2021/01/03 19:00:20;;;;;;;26.08;19.02;;;;;;;4.13;81.34;97200.88;10161807;29;20466;-78
2021/01/03 19:05:40;;;;;;;24.52;19.13;;;;;;;4.16;82.08;97204.56;10175944;29;20091;-77
2021/01/03 19:11:00;;;;;;;28.30;22.08;;;;;;;4.15;81.56;97203.84;10175939;29;20066;-78
2021/01/03 19:16:26;;;;;;;25.10;17.15;;;;;;;4.14;81.73;97207.88;10177962;29;20060;-76
2021/01/03 19:21:46;;;;;;;24.38;17.40;;;;;;;4.16;81.78;97208.06;10170272;29;20059;-78
2021/01/03 19:27:06;;;;;;;24.02;17.45;;;;;;;4.16;81.34;97221.16;10197009;29;20056;-78
2021/01/03 19:32:26;;;;;;;23.85;18.83;;;;;;;4.14;81.68;97224.44;10190655;29;20063;-80
2021/01/03 19:37:47;;;;;;;25.38;18.85;;;;;;;4.14;81.76;97224.44;10175195;29;20064;-77
2021/01/03 19:43:07;;;;;;;26.80;20.10;;;;;;;4.17;81.71;97228.88;10195925;29;20075;-75
2021/01/03 19:48:27;;;;;;;27.98;19.83;;;;;;;4.17;82.09;97231.63;10167464;29;20060;-76
2021/01/03 19:53:47;;;;;;;27.33;20.65;;;;;;;4.21;81.76;97239.50;10181550;29;20090;-76
2021/01/03 19:59:07;;;;;;;27.70;20.20;;;;;;;4.19;81.45;97242.09;10180520;29;20607;-76
2021/01/03 20:04:26;;;;;;;30.35;21.13;;;;;;;4.16;81.40;97243.97;10166973;29;20526;-76
2021/01/03 20:09:46;;;;;;;30.27;21.80;;;;;;;4.14;81.81;97243.78;10166831;29;20067;-76
2021/01/03 20:15:07;;;;;;;27.95;21.02;;;;;;;4.15;81.64;97242.50;10166780;29;20064;-76
2021/01/03 20:20:26;;;;;;;28.17;21.45;;;;;;;4.18;81.74;97243.41;10181633;29;20060;-76
2021/01/03 20:25:46;;;;;;;32.80;23.10;;;;;;;4.20;81.58;97252.59;10166186;29;20060;-77
2021/01/03 20:31:07;;;;;;;36.03;23.90;;;;;;;4.19;81.28;97259.41;10180169;29;20056;-76
2021/01/03 20:36:27;;;;;;;34.17;24.00;;;;;;;4.19;81.53;97253.88;10168540;29;20060;-77
2021/01/03 20:42:00;;;;;;;30.10;22.35;;;;;;;4.20;81.25;97255.34;10183310;29;20502;-80
2021/01/03 20:47:26;;;;;;;31.98;22.73;;;;;;;4.20;81.47;97265.69;10165804;23;20119;-79
2021/01/03 20:52:50;;;;;;;30.35;22.17;;;;;;;4.18;81.19;97271.75;10207155;23;20116;-76
2021/01/03 20:58:10;;;;;;;32.63;23.30;;;;;;;4.21;81.38;97262.34;10139439;29;20065;-76
2021/01/03 21:03:33;;;;;;;38.33;26.08;;;;;;;4.25;81.34;97276.50;10128437;29;20456;-76
2021/01/03 21:08:53;;;;;;;38.78;26.05;;;;;;;4.25;81.65;97279.28;10127806;29;20056;-76
2021/01/03 21:14:13;;;;;;;35.75;25.55;;;;;;;4.22;81.14;97283.16;10127991;29;20067;-76
2021/01/03 21:19:33;;;;;;;36.05;25.20;;;;;;;4.20;81.23;97280.22;10140850;29;20458;-76
2021/01/03 21:24:54;;;;;;;39.88;25.33;;;;;;;4.24;81.31;97280.53;10157069;29;20056;-76
2021/01/03 21:30:19;;;;;;;37.05;24.88;;;;;;;4.23;81.46;97287.38;10180599;29;20138;-76
2021/01/03 21:35:42;;;;;;;38.60;25.27;;;;;;;4.18;81.20;97279.31;10165651;29;20064;-76
2021/01/03 21:41:06;;;;;;;35.95;23.08;;;;;;;4.14;81.52;97285.22;10164359;29;20091;-76
2021/01/03 21:46:35;;;;;;;38.25;24.85;;;;;;;4.08;81.74;97290.25;10179927;29;20070;-76
2021/01/03 21:52:22;;;;;;;38.13;24.92;;;;;;;4.04;81.48;97303.69;10191222;29;20137;-76
2021/01/03 21:58:20;;;;;;;35.20;24.08;;;;;;;4.04;80.97;97306.47;10179110;29;20399;-76
2021/01/03 22:04:36;;;;;;;37.28;25.13;;;;;;;4.02;81.50;97306.28;10178588;29;20071;-76
2021/01/03 22:10:49;;;;;;;35.10;24.25;;;;;;;3.97;81.26;97305.22;10058466;29;20072;-75
2021/01/03 22:16:27;;;;;;;35.90;24.08;;;;;;;3.95;80.90;97302.28;10174985;29;20064;-76
2021/01/03 22:22:31;;;;;;;38.28;24.60;;;;;;;3.95;81.52;97312.59;10150964;29;20103;-76
2021/01/03 22:28:35;;;;;;;37.15;25.05;;;;;;;3.95;81.23;97304.31;10163591;29;20095;-76
2021/01/03 22:33:55;;;;;;;39.50;25.98;;;;;;;3.91;81.24;97301.94;10178681;29;20075;-76
2021/01/03 22:39:29;;;;;;;39.15;25.42;;;;;;;3.93;81.02;97310.38;10150542;29;20076;-76
2021/01/03 22:45:33;;;;;;;41.80;26.35;;;;;;;3.93;80.85;97304.13;10163139;29;20060;-76
2021/01/03 22:51:06;;;;;;;38.53;25.73;;;;;;;3.91;80.93;97301.94;10152982;29;20075;-75
2021/01/03 22:56:48;;;;;;;38.42;24.63;;;;;;;3.89;80.93;97299.00;10173023;29;20406;-76
2021/01/03 23:02:13;;;;;;;38.63;25.48;;;;;;;3.88;81.23;97302.34;10158770;29;20458;-76
2021/01/03 23:07:39;;;;;;;40.97;25.63;;;;;;;3.85;81.02;97298.66;10184590;29;20063;-76
2021/01/03 23:13:44;;;;;;;43.95;27.42;;;;;;;3.85;81.02;97300.69;10171484;29;20060;-76
2021/01/03 23:19:38;;;;;;;41.88;26.70;;;;;;;3.85;81.35;97289.63;10111798;29;20064;-76
2021/01/03 23:25:11;;;;;;;41.50;25.58;;;;;;;3.85;81.38;97293.13;10170626;29;20380;-76
2021/01/03 23:30:32;;;;;;;39.58;25.70;;;;;;;3.88;81.27;97294.78;10184441;29;20103;-76
2021/01/03 23:35:57;;;;;;;38.10;24.33;;;;;;;3.91;80.99;97299.19;10156932;29;20064;-76
2021/01/03 23:41:45;;;;;;;;;;;;;;;3.90;81.21;97283.91;10170937;29;20064;-76
2021/01/03 23:48:04;;;;;;;39.03;24.95;;;;;;;3.85;81.40;97295.16;10113541;29;20404;-76
2021/01/03 23:53:36;;;;;;;36.25;24.58;;;;;;;3.83;81.49;97287.44;10130879;29;20104;-77
2021/01/03 23:59:31;;;;;;;40.60;26.60;;;;;;;3.87;81.15;97289.81;10139140;29;20120;-76
